Time;durP1;ratioP1;P1;durP2;ratioP2;P2;SDS_P1;SDS_P2;PMS_P1;PMS_P2;Temp;Humidity;BMP_temperature;BMP_pressure;BME280_temperature;BME280_humidity;BME280_pressure;Samples;Min_cycle;Max_cycle;Signal;HPM_P1;HPM_P2
2022/12/13 00:00:19;;;;;;;30.03;16.40;;;-6.90;99.90;;;;;;5084519;28;20218;-80
2022/12/13 00:02:46;;;;;;;33.83;18.63;;;-7.00;99.90;;;;;;5071012;28;20203;-79
2022/12/13 00:05:13;;;;;;;32.33;18.07;;;-7.00;99.90;;;;;;5064578;28;20222;-79
2022/12/13 00:07:40;;;;;;;31.43;17.27;;;-7.00;99.90;;;;;;5071902;28;20288;-80
2022/12/13 00:10:08;;;;;;;33.40;17.73;;;-7.00;99.90;;;;;;5077673;28;20222;-79
2022/12/13 00:12:34;;;;;;;30.43;17.03;;;-7.10;99.90;;;;;;5066788;28;20297;-79
2022/12/13 00:15:01;;;;;;;31.37;17.10;;;-7.00;99.90;;;;;;5076505;28;20256;-80
2022/12/13 00:17:31;;;;;;;35.27;18.57;;;-7.00;99.90;;;;;;5066499;28;20233;-79
2022/12/13 00:19:58;;;;;;;32.97;18.03;;;-7.10;99.90;;;;;;5082855;28;20278;-80
2022/12/13 00:22:25;;;;;;;31.20;16.57;;;-7.10;99.90;;;;;;5075459;28;20262;-79
2022/12/13 00:24:54;;;;;;;34.47;18.40;;;-7.10;99.90;;;;;;5066059;28;20203;-79
2022/12/13 00:27:20;;;;;;;33.83;17.93;;;-7.10;99.90;;;;;;5081225;28;20242;-79
2022/12/13 00:29:47;;;;;;;32.20;18.27;;;-7.00;99.90;;;;;;5075387;28;20208;-79
2022/12/13 00:32:14;;;;;;;33.07;17.63;;;-7.10;99.90;;;;;;5084666;28;20297;-79
2022/12/13 00:34:42;;;;;;;33.17;18.40;;;-7.20;99.90;;;;;;5085473;28;20210;-78
2022/12/13 00:37:09;;;;;;;34.87;17.80;;;-7.10;99.90;;;;;;5075275;28;20258;-79
2022/12/13 00:39:36;;;;;;;31.83;16.77;;;-7.00;99.90;;;;;;5064560;28;20211;-79
2022/12/13 00:42:03;;;;;;;33.47;17.50;;;-7.00;99.90;;;;;;5068095;28;20597;-79
2022/12/13 00:44:30;;;;;;;33.63;17.47;;;-6.90;99.90;;;;;;5079282;28;20210;-79
2022/12/13 00:46:57;;;;;;;30.13;16.57;;;-7.00;99.90;;;;;;5083557;28;20229;-80
2022/12/13 00:49:24;;;;;;;32.40;17.50;;;-7.20;99.90;;;;;;5086060;28;20225;-79
2022/12/13 00:51:52;;;;;;;31.80;17.70;;;-7.20;99.90;;;;;;5079324;28;20207;-79
2022/12/13 00:54:19;;;;;;;38.00;18.63;;;-7.00;99.90;;;;;;5083993;28;20200;-79
2022/12/13 00:56:46;;;;;;;33.07;19.00;;;-6.80;99.90;;;;;;5084349;28;20230;-79
2022/12/13 00:59:14;;;;;;;34.20;18.23;;;-6.80;99.90;;;;;;5071897;28;20210;-79
2022/12/13 01:01:41;;;;;;;35.33;17.97;;;-6.90;99.90;;;;;;5086069;28;20233;-79
2022/12/13 01:04:08;;;;;;;33.47;18.23;;;-7.10;99.90;;;;;;5076529;28;20211;-79
2022/12/13 01:06:37;;;;;;;33.93;17.87;;;-7.20;99.90;;;;;;5087383;28;20222;-80
2022/12/13 01:09:09;;;;;;;31.87;16.50;;;-7.10;99.90;;;;;;5093101;28;20205;-79
2022/12/13 01:11:36;;;;;;;31.33;17.20;;;-7.10;99.90;;;;;;5102336;28;20197;-80
2022/12/13 01:14:03;;;;;;;33.30;17.27;;;-7.10;99.90;;;;;;5093127;28;20273;-79
2022/12/13 01:16:30;;;;;;;31.57;16.63;;;-7.20;99.90;;;;;;5104903;28;20289;-78
2022/12/13 01:18:57;;;;;;;32.20;17.97;;;-7.40;99.90;;;;;;5083771;28;20289;-79
2022/12/13 01:21:24;;;;;;;32.77;17.77;;;-7.40;99.90;;;;;;5086505;28;20202;-79
2022/12/13 01:23:51;;;;;;;30.77;16.93;;;-7.40;99.90;;;;;;5088980;28;20201;-79
2022/12/13 01:26:21;;;;;;;32.50;17.30;;;-7.40;99.90;;;;;;5086889;28;20265;-79
2022/12/13 01:28:48;;;;;;;33.23;16.97;;;-7.60;99.90;;;;;;5074594;28;20397;-80
2022/12/13 01:31:17;;;;;;;31.67;16.90;;;-7.70;99.90;;;;;;5086122;28;20216;-79
2022/12/13 01:33:44;;;;;;;32.27;16.60;;;-7.50;99.90;;;;;;5067330;28;20274;-79
2022/12/13 01:36:14;;;;;;;40.40;18.17;;;-7.40;99.90;;;;;;5068610;28;20533;-81
2022/12/13 01:38:40;;;;;;;34.73;16.30;;;-7.30;99.90;;;;;;5077377;28;20233;-78
2022/12/13 01:41:08;;;;;;;35.33;17.17;;;-7.30;99.90;;;;;;5079869;28;20248;-79
2022/12/13 01:46:29;;;;;;;31.23;16.80;;;-7.30;99.90;;;;;;5124051;27;20561;-80
2022/12/13 01:49:02;;;;;;;31.87;17.10;;;-7.40;99.90;;;;;;5124210;28;20273;-81
2022/12/13 01:51:35;;;;;;;33.53;17.33;;;-7.40;99.90;;;;;;5123870;28;20204;-78
2022/12/13 01:54:05;;;;;;;35.10;17.20;;;-7.30;99.90;;;;;;5124171;28;20287;-79
2022/12/13 01:56:35;;;;;;;33.70;16.73;;;-7.20;99.90;;;;;;5126004;28;20220;-79
2022/12/13 01:59:04;;;;;;;30.17;16.83;;;-7.30;99.90;;;;;;5124343;28;20708;-79
2022/12/13 02:01:32;;;;;;;32.33;16.57;;;-7.40;99.90;;;;;;5113455;28;20212;-79
2022/12/13 02:03:59;;;;;;;31.67;17.47;;;-7.50;99.90;;;;;;5104377;28;20224;-79
2022/12/13 02:06:32;;;;;;;31.23;15.83;;;-7.40;99.90;;;;;;5111415;28;20229;-78
2022/12/13 02:09:00;;;;;;;32.07;17.30;;;-7.40;99.90;;;;;;5124617;28;20273;-79
2022/12/13 02:11:27;;;;;;;35.07;18.07;;;-7.30;99.90;;;;;;5123367;28;20296;-79
2022/12/13 02:13:54;;;;;;;32.07;17.50;;;-7.20;99.90;;;;;;5123903;28;20232;-78
2022/12/13 02:16:34;;;;;;;31.70;16.80;;;-7.20;99.90;;;;;;5123383;28;20220;-79
2022/12/13 02:19:37;;;;;;;35.17;17.97;;;-7.20;99.90;;;;;;5122807;28;20266;-79
2022/12/13 02:22:19;;;;;;;36.67;18.33;;;-7.10;99.90;;;;;;5122582;28;20256;-79
2022/12/13 02:25:02;;;;;;;33.53;17.73;;;-7.10;99.90;;;;;;5124105;28;20231;-79
2022/12/13 02:27:49;;;;;;;33.43;17.47;;;-7.10;99.90;;;;;;5121269;28;20231;-79
2022/12/13 02:30:26;;;;;;;33.20;17.83;;;-7.10;99.90;;;;;;5123448;28;20295;-79
2022/12/13 02:33:31;;;;;;;34.13;18.10;;;-7.00;99.90;;;;;;5122308;28;20208;-79
2022/12/13 02:36:08;;;;;;;36.03;18.47;;;-6.90;99.90;;;;;;5117515;28;20197;-80
2022/12/13 02:38:43;;;;;;;34.63;17.53;;;-7.10;99.90;;;;;;5122837;28;20218;-80
2022/12/13 02:41:16;;;;;;;30.47;16.77;;;-7.10;99.90;;;;;;5123159;28;20718;-79
2022/12/13 02:43:48;;;;;;;30.47;17.23;;;-7.10;99.90;;;;;;5122239;28;20194;-80
2022/12/13 02:46:20;;;;;;;32.27;18.10;;;-7.30;99.90;;;;;;5102738;28;20317;-80
2022/12/13 02:48:50;;;;;;;32.33;16.83;;;-7.40;99.90;;;;;;5107656;28;20201;-79
2022/12/13 02:51:18;;;;;;;31.93;16.70;;;-7.40;99.90;;;;;;5117970;28;20229;-79
2022/12/13 02:53:46;;;;;;;31.03;17.37;;;-7.40;99.90;;;;;;5101733;28;20222;-79
2022/12/13 02:56:13;;;;;;;32.87;16.73;;;-7.40;99.90;;;;;;5104974;28;20220;-79
2022/12/13 02:58:44;;;;;;;35.83;17.47;;;-7.40;99.90;;;;;;5108309;28;20348;-79
2022/12/13 03:01:27;;;;;;;30.97;16.53;;;-7.50;99.90;;;;;;5115111;28;20221;-78
2022/12/13 03:04:04;;;;;;;32.57;17.93;;;-7.40;99.90;;;;;;5108486;28;20277;-79
2022/12/13 03:06:41;;;;;;;29.83;16.83;;;-7.40;99.90;;;;;;5098233;28;20289;-78
2022/12/13 03:09:23;;;;;;;31.77;16.60;;;-7.40;99.90;;;;;;5101768;28;20197;-79
2022/12/13 03:14:59;;;;;;;33.13;16.80;;;-7.50;99.90;;;;;;5109363;28;20217;-79
2022/12/13 03:17:31;;;;;;;27.73;15.23;;;-7.50;99.90;;;;;;5109424;28;20253;-79
2022/12/13 03:19:58;;;;;;;32.03;17.00;;;-7.40;99.90;;;;;;5108955;28;20202;-79
2022/12/13 03:22:25;;;;;;;34.07;17.03;;;-7.40;99.90;;;;;;5109025;28;20225;-78
2022/12/13 03:24:52;;;;;;;31.37;16.50;;;-7.30;99.90;;;;;;5108707;28;20217;-80
2022/12/13 03:27:19;;;;;;;33.27;16.43;;;-7.20;99.90;;;;;;5100899;28;20218;-79
2022/12/13 03:29:45;;;;;;;35.33;16.90;;;-7.20;99.90;;;;;;5097144;28;20232;-79
2022/12/13 03:32:12;;;;;;;33.90;16.90;;;-7.10;99.90;;;;;;5108264;28;20292;-79
2022/12/13 03:34:40;;;;;;;30.97;15.57;;;-7.20;99.90;;;;;;5107532;28;20674;-81
2022/12/13 03:37:07;;;;;;;35.67;16.17;;;-7.40;99.90;;;;;;5106393;28;20229;-79
2022/12/13 03:39:34;;;;;;;33.00;16.83;;;-7.50;99.90;;;;;;5107985;28;20232;-79
2022/12/13 03:42:01;;;;;;;32.67;17.00;;;-7.60;99.90;;;;;;5108212;28;20210;-79
2022/12/13 03:44:28;;;;;;;31.83;16.97;;;-7.50;99.90;;;;;;5108796;28;20248;-79
2022/12/13 03:46:55;;;;;;;30.87;17.07;;;-7.40;99.90;;;;;;5108368;28;20256;-79
2022/12/13 03:49:22;;;;;;;31.70;16.37;;;-7.30;99.90;;;;;;5108458;28;20233;-79
2022/12/13 03:51:50;;;;;;;31.50;16.17;;;-7.40;99.90;;;;;;5107878;28;20270;-79
2022/12/13 03:54:17;;;;;;;33.03;17.57;;;-7.60;99.90;;;;;;5095222;28;20298;-79
2022/12/13 03:56:44;;;;;;;32.53;16.80;;;-7.60;99.90;;;;;;5087015;28;20291;-79
2022/12/13 03:59:10;;;;;;;36.93;16.93;;;-7.60;99.90;;;;;;5092755;28;20209;-79
2022/12/13 04:01:37;;;;;;;31.77;17.13;;;-7.40;99.90;;;;;;5095565;28;20189;-79
2022/12/13 04:04:04;;;;;;;36.63;17.57;;;-7.40;99.90;;;;;;5101006;28;20206;-78
2022/12/13 04:06:31;;;;;;;34.37;17.13;;;-7.40;99.90;;;;;;5092346;28;20277;-79
2022/12/13 04:08:59;;;;;;;51.20;27.77;;;-7.30;99.90;;;;;;5100448;28;20228;-79
2022/12/13 04:14:10;;;;;;;33.57;17.40;;;-7.20;99.90;;;;;;5106938;28;20197;-79
2022/12/13 04:16:37;;;;;;;32.60;16.73;;;-7.00;99.90;;;;;;5106986;28;20217;-78
2022/12/13 04:19:04;;;;;;;32.87;17.93;;;-7.10;99.90;;;;;;5107425;28;20205;-79
2022/12/13 04:21:31;;;;;;;32.10;16.83;;;-7.10;99.90;;;;;;5106892;28;20296;-79
2022/12/13 04:23:59;;;;;;;33.90;16.93;;;-7.20;99.90;;;;;;5107248;28;20194;-79
2022/12/13 04:26:26;;;;;;;30.97;15.77;;;-7.20;99.90;;;;;;5112152;28;20288;-79
2022/12/13 04:28:53;;;;;;;30.90;16.63;;;-7.20;99.90;;;;;;5096640;28;20293;-79
2022/12/13 04:31:20;;;;;;;31.40;16.50;;;-7.30;99.90;;;;;;5092994;28;20215;-78
2022/12/13 04:33:47;;;;;;;32.57;16.70;;;-7.30;99.90;;;;;;5087279;28;20214;-79
2022/12/13 04:36:18;;;;;;;32.23;17.33;;;-7.10;99.90;;;;;;5089235;28;20254;-79
2022/12/13 04:38:45;;;;;;;32.77;17.30;;;-7.10;99.90;;;;;;5105613;28;20223;-79
2022/12/13 04:41:16;;;;;;;32.33;16.03;;;-7.10;99.90;;;;;;5096574;28;20222;-79
2022/12/13 04:43:43;;;;;;;32.80;16.80;;;-7.10;99.90;;;;;;5095455;28;20201;-79
2022/12/13 04:46:10;;;;;;;30.77;17.03;;;-7.20;99.90;;;;;;5097158;28;20221;-79
2022/12/13 04:48:37;;;;;;;29.73;15.47;;;-7.20;99.90;;;;;;5099799;28;20210;-79
2022/12/13 04:51:04;;;;;;;30.97;16.33;;;-7.50;99.90;;;;;;5091408;28;20275;-79
2022/12/13 04:53:31;;;;;;;32.97;17.70;;;-7.50;99.90;;;;;;5088650;28;20206;-80
2022/12/13 04:55:58;;;;;;;31.43;17.27;;;-7.70;99.90;;;;;;5093506;28;20278;-80
2022/12/13 04:58:52;;;;;;;30.57;16.50;;;-7.30;99.90;;;;;;5100465;28;20218;-80
2022/12/13 05:01:34;;;;;;;33.90;17.43;;;-7.40;99.90;;;;;;5105455;28;20209;-80
2022/12/13 05:04:02;;;;;;;29.90;15.87;;;-7.30;99.90;;;;;;5115203;28;20197;-79
2022/12/13 05:06:29;;;;;;;34.13;17.03;;;-7.30;99.90;;;;;;5088703;28;20236;-79
2022/12/13 05:08:56;;;;;;;31.03;16.87;;;-7.30;99.90;;;;;;5097944;28;20208;-80
2022/12/13 05:11:22;;;;;;;30.83;16.77;;;-7.30;99.90;;;;;;5118921;28;20205;-80
2022/12/13 05:13:51;;;;;;;30.20;16.30;;;-7.50;99.90;;;;;;5099888;28;20204;-80
2022/12/13 05:16:21;;;;;;;33.50;18.37;;;-7.50;99.90;;;;;;5105407;28;20487;-79
2022/12/13 05:18:48;;;;;;;32.23;16.80;;;-7.30;99.90;;;;;;5100672;28;20239;-80
2022/12/13 05:21:15;;;;;;;32.30;17.00;;;-7.20;99.90;;;;;;5087327;28;20237;-79
2022/12/13 05:23:41;;;;;;;36.13;18.43;;;-7.20;99.90;;;;;;5095240;28;20257;-83
2022/12/13 05:26:09;;;;;;;47.73;25.10;;;-7.30;99.90;;;;;;5094245;28;20213;-83
2022/12/13 05:29:15;;;;;;;35.47;18.40;;;-7.40;99.90;;;;;;5091589;28;20214;-84
2022/12/13 05:31:43;;;;;;;33.23;16.90;;;-7.40;99.90;;;;;;5101271;28;20197;-82
2022/12/13 05:34:10;;;;;;;31.43;16.17;;;-7.30;99.90;;;;;;5106431;28;20189;-83
2022/12/13 05:36:52;;;;;;;33.50;16.17;;;-7.40;99.90;;;;;;5093614;28;20229;-82
2022/12/13 06:58:46;;;;;;;30.53;16.27;;;-6.90;99.90;;;;;;4877339;29;20301;-84
2022/12/13 07:01:15;;;;;;;33.00;17.07;;;-6.80;99.90;;;;;;4920488;29;20241;-82
2022/12/13 07:03:42;;;;;;;32.20;16.20;;;-6.80;99.90;;;;;;5033065;28;20234;-81
2022/12/13 07:06:13;;;;;;;33.23;16.73;;;-6.80;99.90;;;;;;5049385;28;20279;-83
2022/12/13 07:08:40;;;;;;;33.10;16.93;;;-6.60;99.90;;;;;;5049473;28;20200;-82
2022/12/13 07:11:06;;;;;;;33.00;16.67;;;-6.60;99.90;;;;;;5065291;28;20229;-82
2022/12/13 07:13:34;;;;;;;29.27;15.77;;;-6.60;99.90;;;;;;5070571;28;20270;-84
2022/12/13 07:16:01;;;;;;;29.33;15.97;;;-6.70;99.90;;;;;;5070307;28;20270;-80
2022/12/13 07:18:28;;;;;;;33.93;17.10;;;-6.80;99.90;;;;;;5069074;28;20336;-80
2022/12/13 07:20:55;;;;;;;32.13;16.40;;;-6.70;99.90;;;;;;5105081;28;20296;-82
2022/12/13 07:23:22;;;;;;;31.40;16.83;;;-6.70;99.90;;;;;;5110076;28;20202;-82
2022/12/13 07:25:52;;;;;;;31.80;17.47;;;-6.70;99.90;;;;;;5111018;28;20540;-83
2022/12/13 07:28:20;;;;;;;30.80;16.17;;;-6.70;99.90;;;;;;5113018;28;20235;-81
2022/12/13 07:30:48;;;;;;;33.70;17.13;;;-6.80;99.90;;;;;;5111472;28;20296;-83
2022/12/13 07:33:15;;;;;;;31.60;16.30;;;-6.70;99.90;;;;;;5110732;28;20272;-82
2022/12/13 07:35:42;;;;;;;28.83;15.07;;;-6.80;99.90;;;;;;5113497;28;20264;-82
2022/12/13 07:38:10;;;;;;;29.53;15.27;;;-6.80;99.90;;;;;;5112824;28;20284;-83
2022/12/13 07:40:38;;;;;;;30.50;15.53;;;-6.80;99.90;;;;;;5112093;28;20256;-84
2022/12/13 07:43:06;;;;;;;31.73;16.03;;;-6.80;99.90;;;;;;5112106;28;20264;-83
2022/12/13 07:45:33;;;;;;;34.03;16.83;;;-6.80;99.90;;;;;;5112739;28;20210;-81
2022/12/13 07:48:04;;;;;;;30.40;15.30;;;-6.70;99.90;;;;;;5120417;28;20285;-83
2022/12/13 07:50:31;;;;;;;32.07;15.83;;;-6.70;99.90;;;;;;5131909;28;20243;-79
2022/12/13 07:52:58;;;;;;;31.23;16.50;;;-6.70;99.90;;;;;;5112482;28;20229;-82
2022/12/13 07:55:24;;;;;;;31.47;16.23;;;-6.70;99.90;;;;;;5111590;28;20206;-81
2022/12/13 07:57:57;;;;;;;29.40;16.50;;;-6.60;99.90;;;;;;5112927;28;20225;-83
2022/12/13 08:00:23;;;;;;;31.27;16.37;;;-6.50;99.90;;;;;;5110940;28;20216;-82
2022/12/13 08:02:50;;;;;;;33.57;16.63;;;-6.50;99.90;;;;;;5110640;28;20261;-80
2022/12/13 08:05:18;;;;;;;30.33;16.47;;;-6.40;99.90;;;;;;5112387;28;20205;-82
2022/12/13 08:07:45;;;;;;;30.83;16.80;;;-6.30;99.90;;;;;;5092847;28;20226;-81
2022/12/13 08:10:12;;;;;;;35.67;16.80;;;-6.30;99.90;;;;;;5092272;28;20265;-82
2022/12/13 08:12:38;;;;;;;28.70;14.53;;;-6.30;99.90;;;;;;5100558;28;20268;-83
2022/12/13 08:15:06;;;;;;;31.83;16.27;;;-6.30;99.90;;;;;;5110904;28;20272;-81
2022/12/13 08:17:33;;;;;;;31.33;15.80;;;-6.30;99.90;;;;;;5110987;28;20286;-83
2022/12/13 08:20:00;;;;;;;34.03;17.37;;;-6.00;99.90;;;;;;5092476;28;20206;-81
2022/12/13 08:22:28;;;;;;;32.37;15.10;;;-6.00;99.90;;;;;;5090532;28;20292;-83
2022/12/13 08:24:55;;;;;;;31.33;15.90;;;-5.90;99.90;;;;;;5091386;28;20269;-84
2022/12/13 08:27:21;;;;;;;31.17;16.43;;;-5.90;99.90;;;;;;5090575;28;20298;-83
2022/12/13 08:29:48;;;;;;;33.30;17.20;;;-5.70;99.90;;;;;;5091052;28;20349;-81
2022/12/13 08:32:15;;;;;;;33.03;16.07;;;-5.70;99.90;;;;;;5098417;28;20213;-81
2022/12/13 08:34:42;;;;;;;34.33;17.03;;;-5.50;99.90;;;;;;5116659;28;20204;-82
2022/12/13 08:37:09;;;;;;;34.40;17.60;;;-5.40;99.90;;;;;;5130370;28;20284;-81
2022/12/13 08:39:38;;;;;;;32.53;16.20;;;-5.60;99.90;;;;;;5106967;28;20209;-82
2022/12/13 08:42:07;;;;;;;35.20;16.77;;;-5.60;99.90;;;;;;5108706;28;20265;-81
2022/12/13 08:44:34;;;;;;;35.63;18.33;;;-5.60;99.90;;;;;;5089949;28;20278;-82
2022/12/13 08:47:01;;;;;;;37.53;17.73;;;-5.40;99.90;;;;;;5087887;28;20293;-80
2022/12/13 08:49:28;;;;;;;33.33;16.70;;;-5.30;99.90;;;;;;5090405;28;20681;-83
2022/12/13 08:51:54;;;;;;;34.40;15.30;;;-5.20;99.90;;;;;;5090355;28;20269;-82
2022/12/13 08:54:21;;;;;;;33.27;16.30;;;-5.00;99.90;;;;;;5090953;28;20478;-82
2022/12/13 08:56:49;;;;;;;31.63;17.00;;;-4.90;99.90;;;;;;5090644;28;20226;-81
2022/12/13 08:59:17;;;;;;;31.63;14.90;;;-5.00;99.90;;;;;;5115135;28;20209;-79
2022/12/13 09:01:43;;;;;;;33.63;14.67;;;-4.80;99.90;;;;;;5116567;28;20200;-83
2022/12/13 09:04:10;;;;;;;32.53;14.97;;;-4.70;99.90;;;;;;5117119;28;20249;-81
2022/12/13 09:06:37;;;;;;;34.13;16.20;;;-4.80;99.90;;;;;;5121654;28;20289;-82
2022/12/13 09:09:04;;;;;;;32.50;16.23;;;-4.90;99.90;;;;;;5110816;28;20270;-83
2022/12/13 09:11:30;;;;;;;31.63;14.77;;;-5.00;99.90;;;;;;5106333;28;20303;-81
2022/12/13 09:13:59;;;;;;;30.97;14.27;;;-4.60;99.90;;;;;;5114975;28;20197;-81
2022/12/13 09:16:25;;;;;;;30.67;13.67;;;-4.50;99.90;;;;;;5110660;28;20689;-83
2022/12/13 09:18:53;;;;;;;30.47;12.60;;;-4.60;99.90;;;;;;5111413;28;20270;-82
2022/12/13 09:21:20;;;;;;;29.57;14.23;;;-4.60;99.90;;;;;;5107369;28;20194;-81
2022/12/13 09:23:47;;;;;;;31.60;16.63;;;-4.60;99.90;;;;;;5103768;28;20197;-82
2022/12/13 09:26:15;;;;;;;29.63;15.07;;;-4.50;99.90;;;;;;5109652;28;20301;-83
2022/12/13 09:28:42;;;;;;;34.83;15.43;;;-4.20;99.90;;;;;;5107306;28;20265;-81
2022/12/13 09:31:13;;;;;;;31.83;15.20;;;-3.90;99.90;;;;;;5126612;28;20300;-83
2022/12/13 09:33:49;;;;;;;33.43;16.27;;;-3.20;99.90;;;;;;5117856;28;20204;-84
2022/12/13 09:36:17;;;;;;;31.10;14.03;;;-3.00;99.90;;;;;;5130235;28;20185;-83
2022/12/13 09:38:44;;;;;;;29.80;14.53;;;-3.20;99.90;;;;;;5130729;28;20291;-83
2022/12/13 09:41:20;;;;;;;30.43;14.33;;;-3.00;99.90;;;;;;5131558;28;20264;-84
2022/12/13 09:43:49;;;;;;;32.77;14.00;;;-3.50;99.90;;;;;;5131001;28;20201;-82
2022/12/13 09:46:25;;;;;;;31.07;14.43;;;-3.60;99.90;;;;;;5131304;28;20280;-84
2022/12/13 09:48:53;;;;;;;32.80;17.20;;;-3.60;99.90;;;;;;5131351;28;20672;-84
2022/12/13 09:51:20;;;;;;;32.87;14.33;;;-3.60;99.90;;;;;;5130572;28;20264;-80
2022/12/13 09:53:50;;;;;;;31.53;16.07;;;-3.60;99.90;;;;;;5131932;28;20221;-82
2022/12/13 09:56:19;;;;;;;30.23;15.57;;;-3.50;99.90;;;;;;5131147;28;20216;-82
2022/12/13 09:58:48;;;;;;;33.13;14.60;;;-3.60;99.90;;;;;;5130834;28;20261;-84
2022/12/13 10:01:16;;;;;;;27.57;13.77;;;-3.50;99.90;;;;;;5130716;28;20236;-81
2022/12/13 10:03:47;;;;;;;31.40;13.80;;;-3.40;99.90;;;;;;5130631;28;20269;-84
2022/12/13 10:06:16;;;;;;;38.60;15.70;;;-3.50;99.90;;;;;;5131115;28;20219;-84
2022/12/13 10:08:45;;;;;;;30.27;15.27;;;-3.20;99.90;;;;;;5134574;28;20501;-84
2022/12/13 10:11:13;;;;;;;28.03;12.87;;;-3.20;99.90;;;;;;5134343;28;20260;-81
2022/12/13 10:13:43;;;;;;;30.23;14.83;;;-3.20;99.90;;;;;;5133361;28;20273;-83
2022/12/13 10:16:15;;;;;;;33.97;14.63;;;-3.00;99.90;;;;;;5133465;28;20477;-84
2022/12/13 10:18:44;;;;;;;31.23;13.67;;;-2.80;99.90;;;;;;5133689;28;20272;-83
2022/12/13 10:21:14;;;;;;;34.67;14.83;;;-2.20;99.90;;;;;;5133058;28;20200;-84
2022/12/13 10:23:41;;;;;;;31.87;13.73;;;-2.70;99.90;;;;;;5133772;28;20264;-83
2022/12/13 10:26:10;;;;;;;31.13;14.33;;;-2.70;99.90;;;;;;5133805;28;20200;-84
2022/12/13 10:28:38;;;;;;;28.60;14.10;;;-2.90;99.90;;;;;;5132749;28;20343;-82
2022/12/13 10:31:05;;;;;;;30.07;13.63;;;-2.80;99.90;;;;;;5133353;28;20281;-84
2022/12/13 10:33:36;;;;;;;32.63;14.93;;;-2.80;99.90;;;;;;5133314;28;20622;-83
2022/12/13 10:36:11;;;;;;;33.37;15.07;;;-2.80;99.90;;;;;;5133469;28;20288;-84
2022/12/13 10:38:40;;;;;;;33.83;15.67;;;-2.70;99.90;;;;;;5133519;27;20205;-84
2022/12/13 10:41:30;;;;;;;28.90;13.57;;;-2.70;99.90;;;;;;5132151;28;20228;-83
2022/12/13 10:44:28;;;;;;;34.20;17.27;;;-2.70;99.90;;;;;;5133681;28;20261;-82
2022/12/13 10:47:10;;;;;;;30.33;13.73;;;-2.60;99.90;;;;;;5133319;28;20254;-83
2022/12/13 10:49:48;;;;;;;31.97;15.10;;;-2.60;99.90;;;;;;5134313;28;20265;-84
2022/12/13 10:52:27;;;;;;;30.27;14.07;;;-2.60;99.90;;;;;;5133554;28;20219;-83
2022/12/13 10:54:58;;;;;;;31.97;13.57;;;-2.60;99.90;;;;;;5133137;28;20200;-84
2022/12/13 10:57:25;;;;;;;29.70;13.77;;;-2.50;99.90;;;;;;5133030;28;20288;-82
2022/12/13 10:59:52;;;;;;;31.40;14.20;;;-2.50;99.90;;;;;;5133926;28;20205;-82
2022/12/13 11:02:30;;;;;;;32.00;14.47;;;-2.40;99.90;;;;;;5132695;28;20330;-85
2022/12/13 11:04:58;;;;;;;28.77;13.70;;;-2.40;99.90;;;;;;5116891;28;20240;-82
2022/12/13 11:07:29;;;;;;;33.53;15.47;;;-2.40;99.90;;;;;;5110429;28;20224;-82
2022/12/13 11:09:56;;;;;;;32.80;13.63;;;-2.40;99.90;;;;;;5110394;28;20261;-84
2022/12/13 11:12:26;;;;;;;31.33;12.90;;;-2.30;99.90;;;;;;5119463;28;20196;-84
2022/12/13 11:14:56;;;;;;;29.50;13.47;;;-2.40;99.90;;;;;;5110527;28;20201;-84
2022/12/13 11:17:26;;;;;;;31.07;14.73;;;-2.30;99.90;;;;;;5110890;28;20214;-82
2022/12/13 11:19:55;;;;;;;28.90;13.10;;;-2.30;99.90;;;;;;5110439;28;20205;-82
2022/12/13 11:22:27;;;;;;;35.03;13.83;;;-2.20;99.90;;;;;;5112011;28;20264;-82
2022/12/13 11:25:00;;;;;;;32.13;14.03;;;-2.20;99.90;;;;;;5110216;28;20212;-83
2022/12/13 11:27:47;;;;;;;30.13;14.73;;;-2.10;99.90;;;;;;5110002;28;20285;-81
2022/12/13 11:30:21;;;;;;;30.67;14.37;;;-1.90;99.90;;;;;;5117210;28;20213;-81
2022/12/13 11:33:02;;;;;;;34.57;15.10;;;-2.00;99.90;;;;;;5110127;28;20544;-85
2022/12/13 11:35:36;;;;;;;28.87;13.43;;;-2.00;99.90;;;;;;5112731;28;20225;-84
2022/12/13 11:38:14;;;;;;;33.50;13.87;;;-2.00;99.90;;;;;;5111243;28;20281;-82
2022/12/13 11:40:44;;;;;;;32.40;15.07;;;-1.90;99.90;;;;;;5112403;28;20225;-83
2022/12/13 11:43:23;;;;;;;31.77;13.90;;;-1.90;99.90;;;;;;5111304;28;20293;-83
2022/12/13 11:45:55;;;;;;;31.00;15.13;;;-1.90;99.90;;;;;;5110872;28;20245;-85
2022/12/13 11:48:25;;;;;;;31.60;15.00;;;-1.90;99.90;;;;;;5111171;28;20222;-81
2022/12/13 11:50:55;;;;;;;28.57;14.03;;;-1.80;99.90;;;;;;5112534;28;20257;-84
2022/12/13 11:53:30;;;;;;;30.87;14.67;;;-1.70;99.90;;;;;;5110368;28;20239;-83
2022/12/13 11:56:04;;;;;;;27.70;13.60;;;-1.60;99.90;;;;;;5111663;28;20288;-81
2022/12/13 11:58:37;;;;;;;33.13;14.97;;;-1.40;99.90;;;;;;5111895;28;20292;-84
2022/12/13 12:01:09;;;;;;;31.80;15.03;;;-1.00;99.90;;;;;;5121124;28;20284;-82
2022/12/13 12:03:41;;;;;;;30.70;14.00;;;-0.70;99.90;;;;;;5131839;28;20295;-81
2022/12/13 12:06:13;;;;;;;32.23;15.63;;;-0.70;99.90;;;;;;5132046;28;20265;-83
2022/12/13 12:08:46;;;;;;;28.13;14.33;;;-0.60;99.90;;;;;;5129969;28;20225;-84
2022/12/13 12:11:21;;;;;;;31.43;13.67;;;-0.60;99.90;;;;;;5132190;28;20698;-84
2022/12/13 12:13:53;;;;;;;31.87;13.93;;;-0.80;99.90;;;;;;5132511;28;20226;-82
2022/12/13 12:16:29;;;;;;;31.50;14.03;;;-0.90;99.90;;;;;;5132270;28;20200;-84
2022/12/13 12:18:56;;;;;;;33.23;15.13;;;-0.80;99.90;;;;;;5131983;28;20260;-85
2022/12/13 12:21:36;;;;;;;31.13;14.77;;;-0.90;99.90;;;;;;5133054;28;20264;-82
2022/12/13 12:24:17;;;;;;;29.17;13.73;;;-0.70;99.90;;;;;;5131605;28;20313;-84
2022/12/13 12:27:05;;;;;;;30.27;14.33;;;-0.50;99.90;;;;;;5131655;28;20247;-85
2022/12/13 12:30:04;;;;;;;28.57;13.97;;;-0.60;99.90;;;;;;5131970;28;20201;-85
2022/12/13 12:32:36;;;;;;;31.63;13.67;;;-0.40;99.90;;;;;;5095201;28;20260;-85
2022/12/13 12:35:20;;;;;;;29.77;14.80;;;-0.30;99.90;;;;;;5129513;28;20264;-82
2022/12/13 12:37:53;;;;;;;30.67;14.40;;;-0.70;99.90;;;;;;5131408;28;20292;-83
2022/12/13 12:40:47;;;;;;;30.50;14.10;;;-0.60;99.90;;;;;;5132718;28;20189;-82
2022/12/13 12:43:25;;;;;;;28.00;13.60;;;0.40;99.90;;;;;;5133010;28;20261;-83
2022/12/13 12:46:02;;;;;;;27.60;13.17;;;0.60;99.90;;;;;;5109253;28;20201;-85
2022/12/13 12:48:50;;;;;;;28.00;13.27;;;0.70;99.90;;;;;;5124244;28;20311;-83
2022/12/13 12:51:21;;;;;;;33.47;14.20;;;0.40;99.90;;;;;;5131545;28;20280;-83
2022/12/13 12:53:54;;;;;;;26.33;13.47;;;0.20;99.90;;;;;;5126946;28;20287;-84
2022/12/13 12:56:37;;;;;;;27.43;13.00;;;0.00;99.90;;;;;;5129867;28;20264;-82
2022/12/13 12:59:12;;;;;;;26.37;13.50;;;-0.40;99.90;;;;;;5111781;28;20258;-84
2022/12/13 13:01:52;;;;;;;29.63;13.83;;;0.20;99.90;;;;;;5121680;28;20198;-83
2022/12/13 13:04:26;;;;;;;28.13;12.93;;;0.20;99.90;;;;;;5117603;28;20264;-83
2022/12/13 13:06:59;;;;;;;27.37;12.93;;;0.20;99.90;;;;;;5123368;28;20304;-83
2022/12/13 13:09:28;;;;;;;27.43;12.67;;;0.30;99.90;;;;;;5111139;28;20276;-85
2022/12/13 13:11:57;;;;;;;26.50;13.23;;;0.30;99.90;;;;;;5111195;28;20217;-85
2022/12/13 13:14:31;;;;;;;27.13;12.53;;;0.50;99.90;;;;;;5121364;28;20241;-83
2022/12/13 13:16:58;;;;;;;26.60;12.33;;;-0.20;99.90;;;;;;5110082;28;20281;-82
2022/12/13 13:19:45;;;;;;;26.90;12.20;;;-0.60;99.90;;;;;;5109585;28;20269;-85
2022/12/13 13:22:31;;;;;;;26.47;12.53;;;-0.80;99.90;;;;;;5112652;28;20265;-82
2022/12/13 13:25:13;;;;;;;27.37;13.43;;;-0.90;99.90;;;;;;5111223;28;20197;-83
2022/12/13 13:27:43;;;;;;;25.87;12.50;;;-0.80;99.90;;;;;;5112009;28;20312;-85
2022/12/13 13:30:18;;;;;;;25.73;12.43;;;-0.90;99.90;;;;;;5111119;28;20235;-85
2022/12/13 13:32:45;;;;;;;28.20;13.33;;;-0.70;99.90;;;;;;5111258;28;20227;-83
2022/12/13 13:35:49;;;;;;;31.03;13.97;;;-0.60;99.90;;;;;;5111011;28;20264;-84
2022/12/13 13:38:28;;;;;;;27.43;12.50;;;-0.30;99.90;;;;;;5109143;28;20244;-83
2022/12/13 13:40:55;;;;;;;26.07;12.00;;;-0.70;99.90;;;;;;5110226;28;20263;-82
2022/12/13 13:43:30;;;;;;;27.50;12.70;;;-0.90;99.90;;;;;;5111417;28;20268;-84
2022/12/13 13:46:10;;;;;;;25.33;12.63;;;-1.00;99.90;;;;;;5110282;28;20743;-81
2022/12/13 13:48:56;;;;;;;25.27;12.10;;;-1.00;99.90;;;;;;5111334;28;20312;-84
2022/12/13 13:52:04;;;;;;;27.60;13.17;;;-1.10;99.90;;;;;;5110610;28;20193;-83
2022/12/13 13:55:13;;;;;;;28.47;12.73;;;-1.20;99.90;;;;;;5049662;28;20269;-82
2022/12/13 13:58:25;;;;;;;29.67;13.13;;;-1.20;99.90;;;;;;5109569;28;20221;-82
2022/12/13 14:01:20;;;;;;;27.47;13.23;;;-1.30;99.90;;;;;;5073481;28;20272;-82
2022/12/13 14:04:11;;;;;;;25.90;11.70;;;-1.40;99.90;;;;;;5127644;28;20208;-84
2022/12/13 14:07:18;;;;;;;30.33;13.97;;;-1.60;99.90;;;;;;5131400;28;20280;-83
2022/12/13 14:10:14;;;;;;;28.40;13.13;;;-1.60;99.90;;;;;;5127227;28;20264;-83
2022/12/13 14:13:17;;;;;;;28.97;13.50;;;-1.50;99.90;;;;;;5115259;28;20263;-84
2022/12/13 14:16:20;;;;;;;28.57;13.23;;;-1.60;99.90;;;;;;5129902;28;20276;-83
2022/12/13 14:19:23;;;;;;;40.93;20.47;;;-1.70;99.90;;;;;;5092530;28;20216;-85